Time;durP1;ratioP1;P1;durP2;ratioP2;P2;SDS_P1;SDS_P2;PMS_P1;PMS_P2;Temp;Humidity;BMP_temperature;BMP_pressure;BME280_temperature;BME280_humidity;BME280_pressure;Samples;Min_cycle;Max_cycle;Signal;HPM_P1;HPM_P2
2023/09/06 00:00:43;;;;;;;3.60;2.80;;;;;;;18.61;55.50;93199.66;2054168;70;20150;-76
2023/09/06 00:03:13;;;;;;;5.07;2.70;;;;;;;18.69;55.74;93203.56;2047313;70;20201;-75
2023/09/06 00:05:42;;;;;;;7.65;2.70;;;;;;;18.59;57.50;93202.41;2044976;70;20269;-75
2023/09/06 00:08:16;;;;;;;3.75;2.70;;;;;;;18.59;56.92;93208.09;2048013;70;20590;-76
2023/09/06 00:10:44;;;;;;;4.35;2.90;;;;;;;18.63;57.13;93209.00;2051338;70;20151;-75
2023/09/06 00:13:12;;;;;;;3.45;2.58;;;;;;;18.58;56.93;93207.38;2051351;70;20142;-75
2023/09/06 00:15:37;;;;;;;4.45;2.70;;;;;;;18.59;57.78;93202.41;2051297;70;20141;-75
2023/09/06 00:18:07;;;;;;;5.72;3.10;;;;;;;18.34;58.24;93198.59;2050908;70;20162;-74
2023/09/06 00:20:36;;;;;;;4.82;3.15;;;;;;;18.51;56.77;93208.53;2051287;70;20158;-76
2023/09/06 00:23:09;;;;;;;5.70;2.80;;;;;;;18.52;57.08;93210.72;2051202;70;20538;-75
2023/09/06 00:25:35;;;;;;;5.93;2.90;;;;;;;18.37;57.23;93202.25;2047879;70;20224;-75
2023/09/06 00:28:09;;;;;;;4.05;3.10;;;;;;;18.47;57.28;93205.53;2051287;70;20138;-76
2023/09/06 00:30:38;;;;;;;4.13;2.80;;;;;;;18.37;57.91;93207.94;2047897;70;20150;-76
2023/09/06 00:33:06;;;;;;;5.47;2.90;;;;;;;18.41;57.24;93208.84;2051135;70;20138;-75
2023/09/06 00:35:32;;;;;;;4.70;3.10;;;;;;;18.31;56.31;93208.44;2045355;70;20138;-75
2023/09/06 00:38:05;;;;;;;4.63;2.78;;;;;;;18.28;56.33;93198.38;2051406;70;20186;-76
2023/09/06 00:40:35;;;;;;;3.53;3.08;;;;;;;18.08;57.47;93214.63;2044989;70;20571;-76
2023/09/06 00:43:03;;;;;;;5.65;3.10;;;;;;;18.22;56.76;93206.66;2047802;70;20155;-76
2023/09/06 00:45:36;;;;;;;8.35;3.17;;;;;;;18.14;57.33;93207.06;2051035;70;20202;-76
2023/09/06 00:48:05;;;;;;;4.15;2.80;;;;;;;18.12;57.89;93200.56;2051007;70;20192;-77
2023/09/06 00:50:33;;;;;;;5.43;3.10;;;;;;;18.12;57.90;93209.81;2047752;70;20162;-76
2023/09/06 00:52:59;;;;;;;3.80;3.03;;;;;;;18.14;58.03;93212.75;2047795;70;20232;-77
2023/09/06 00:55:25;;;;;;;3.53;2.60;;;;;;;18.16;56.92;93212.13;2047851;70;20156;-77
2023/09/06 00:57:52;;;;;;;4.13;2.83;;;;;;;17.94;56.25;93211.94;2047693;70;20155;-76
2023/09/06 01:00:19;;;;;;;4.35;2.75;;;;;;;17.87;57.37;93204.50;2047601;70;20146;-77
2023/09/06 01:02:47;;;;;;;3.33;2.72;;;;;;;18.12;56.31;93206.97;2051089;70;20161;-76
2023/09/06 01:05:17;;;;;;;4.25;3.08;;;;;;;18.18;57.04;93200.78;2051209;70;20146;-76
2023/09/06 01:07:53;;;;;;;4.97;3.15;;;;;;;18.14;57.95;93194.91;2050990;70;20146;-76
2023/09/06 01:10:19;;;;;;;7.10;3.08;;;;;;;18.05;57.92;93205.25;2050958;70;20347;-76
2023/09/06 01:12:45;;;;;;;5.28;3.20;;;;;;;17.89;57.41;93199.63;2051145;70;20142;-76
2023/09/06 01:15:12;;;;;;;4.32;2.97;;;;;;;17.97;57.22;93202.81;2047538;70;20241;-76
2023/09/06 01:17:41;;;;;;;6.15;2.60;;;;;;;18.09;57.84;93199.00;2050516;70;20643;-76
2023/09/06 01:20:24;;;;;;;5.20;2.97;;;;;;;18.09;58.27;93196.88;2047822;70;20127;-74
2023/09/06 01:23:09;;;;;;;7.53;2.72;;;;;;;18.04;57.93;93201.66;2051200;70;20169;-75
2023/09/06 01:25:34;;;;;;;5.35;3.17;;;;;;;17.92;57.73;93206.88;2047802;70;20146;-76
2023/09/06 01:28:00;;;;;;;5.03;3.28;;;;;;;17.87;59.04;93199.56;2051353;70;20177;-75
2023/09/06 01:30:30;;;;;;;7.93;3.45;;;;;;;17.93;57.51;93196.94;2047873;70;20201;-76
2023/09/06 01:32:56;;;;;;;4.28;3.30;;;;;;;18.04;56.88;93195.97;2051111;70;20570;-77
2023/09/06 01:35:22;;;;;;;4.28;3.10;;;;;;;17.83;58.53;93195.81;2047947;70;20149;-76
2023/09/06 01:37:51;;;;;;;5.70;3.10;;;;;;;17.95;57.52;93197.03;2047947;70;20162;-76
2023/09/06 01:40:17;;;;;;;5.82;3.00;;;;;;;17.93;58.11;93194.09;2051379;70;20602;-76
2023/09/06 01:42:44;;;;;;;4.07;3.22;;;;;;;18.01;57.27;93197.28;2047811;70;20154;-77
2023/09/06 01:45:10;;;;;;;3.95;3.25;;;;;;;17.82;57.69;93200.00;2045027;70;20142;-76
2023/09/06 01:47:36;;;;;;;3.80;3.17;;;;;;;17.87;56.31;93198.78;2050908;70;20241;-76
2023/09/06 01:50:04;;;;;;;5.38;3.10;;;;;;;17.77;56.80;93201.97;2044844;70;20151;-76
2023/09/06 01:52:30;;;;;;;4.85;3.10;;;;;;;17.94;56.18;93206.97;2047556;70;20193;-76
2023/09/06 01:54:55;;;;;;;5.35;3.50;;;;;;;17.84;57.20;93198.00;2047845;70;20134;-76
2023/09/06 01:57:22;;;;;;;4.13;3.00;;;;;;;17.93;56.68;93201.91;2047693;70;20134;-76
2023/09/06 01:59:50;;;;;;;3.88;3.25;;;;;;;17.92;57.26;93200.47;2047743;70;20138;-76
2023/09/06 02:02:20;;;;;;;8.15;2.97;;;;;;;17.65;58.05;93193.63;2050911;70;20511;-76
2023/09/06 02:04:46;;;;;;;4.90;3.28;;;;;;;17.84;57.21;93192.31;2047783;70;20502;-77
2023/09/06 02:07:14;;;;;;;4.28;3.20;;;;;;;17.75;57.82;93188.38;2051127;70;20150;-77
2023/09/06 02:09:41;;;;;;;8.40;3.28;;;;;;;17.68;58.12;93186.63;2047743;70;20162;-76
2023/09/06 02:12:08;;;;;;;4.28;3.10;;;;;;;17.60;59.11;93189.13;2050861;70;20729;-76
2023/09/06 02:14:35;;;;;;;5.20;3.15;;;;;;;17.37;60.75;93190.28;2047583;70;20658;-76
2023/09/06 02:17:02;;;;;;;6.20;3.20;;;;;;;17.54;59.18;93183.16;2047572;70;20741;-75
2023/09/06 02:19:31;;;;;;;6.10;3.10;;;;;;;17.61;58.71;93192.72;2047483;70;20149;-75
2023/09/06 02:21:57;;;;;;;6.70;3.40;;;;;;;17.59;59.05;93193.34;2047622;70;20147;-75
2023/09/06 02:24:22;;;;;;;5.80;3.30;;;;;;;17.61;58.82;93184.91;2051230;70;20138;-76
2023/09/06 02:26:48;;;;;;;5.43;3.30;;;;;;;17.57;59.78;93187.56;2047546;70;20154;-75
2023/09/06 02:29:15;;;;;;;6.03;3.30;;;;;;;17.48;58.78;93192.19;2050690;70;20142;-75
2023/09/06 02:31:44;;;;;;;4.90;3.10;;;;;;;17.44;59.29;93199.81;2050856;70;20173;-76
2023/09/06 02:34:11;;;;;;;5.93;3.10;;;;;;;17.44;59.27;93191.28;2047613;70;20232;-76
2023/09/06 02:36:37;;;;;;;6.00;3.90;;;;;;;17.33;59.90;93195.81;2050985;70;20210;-76
2023/09/06 02:39:04;;;;;;;4.25;3.20;;;;;;;17.50;57.91;93197.22;2051211;70;20245;-76
2023/09/06 02:41:29;;;;;;;5.32;3.40;;;;;;;17.11;60.68;93191.97;2050897;70;20220;-76
2023/09/06 02:43:55;;;;;;;5.50;3.10;;;;;;;17.27;60.02;93195.53;2047775;70;20154;-76
2023/09/06 02:46:21;;;;;;;4.20;3.47;;;;;;;17.26;59.87;93205.44;2047453;70;20599;-75
2023/09/06 02:48:46;;;;;;;4.55;3.28;;;;;;;17.25;60.32;93201.88;2050571;70;20905;-76
2023/09/06 02:51:15;;;;;;;4.03;3.28;;;;;;;17.23;58.73;93201.78;2054365;70;20598;-75
2023/09/06 02:53:45;;;;;;;4.63;3.05;;;;;;;17.11;58.20;93206.19;2054597;70;20217;-76
2023/09/06 02:56:13;;;;;;;4.05;3.17;;;;;;;17.30;57.16;93208.47;2054646;70;20632;-76
2023/09/06 02:58:42;;;;;;;6.82;3.40;;;;;;;17.39;57.41;93210.28;2054460;70;20198;-76
2023/09/06 03:01:19;;;;;;;3.30;3.00;;;;;;;17.22;58.61;93206.00;2054512;70;20161;-77
2023/09/06 03:03:51;;;;;;;5.20;3.13;;;;;;;17.35;58.46;93210.09;2054527;70;20305;-76
2023/09/06 03:06:32;;;;;;;3.72;2.90;;;;;;;17.38;58.79;93205.97;2050990;70;20138;-76
2023/09/06 03:09:00;;;;;;;5.35;3.53;;;;;;;17.35;58.91;93198.72;2050872;70;20168;-75
2023/09/06 03:11:26;;;;;;;4.72;3.20;;;;;;;17.22;58.98;93208.84;2050913;70;20545;-75
2023/09/06 03:13:57;;;;;;;4.20;3.05;;;;;;;17.32;58.30;93208.56;2051067;70;20150;-76
2023/09/06 03:16:23;;;;;;;5.35;3.28;;;;;;;17.15;59.09;93214.91;2050963;70;20204;-76
2023/09/06 03:18:54;;;;;;;4.97;3.13;;;;;;;17.20;59.36;93214.44;2051110;70;20677;-76
2023/09/06 03:21:20;;;;;;;6.90;2.97;;;;;;;17.18;59.62;93214.38;2051150;70;20249;-75
2023/09/06 03:23:49;;;;;;;6.15;3.42;;;;;;;16.97;61.37;93212.72;2054642;70;20162;-77
2023/09/06 03:26:15;;;;;;;3.50;3.20;;;;;;;17.09;59.97;93212.53;2051056;70;20233;-76
2023/09/06 03:28:41;;;;;;;5.35;3.15;;;;;;;17.07;59.30;93215.28;2051059;70;20147;-76
2023/09/06 03:31:13;;;;;;;5.68;3.35;;;;;;;17.13;57.03;93220.50;2051135;70;20166;-77
2023/09/06 03:33:42;;;;;;;6.68;3.33;;;;;;;16.91;58.49;93209.59;2054381;70;20695;-75
2023/09/06 03:36:09;;;;;;;6.95;3.80;;;;;;;17.03;58.83;93212.97;2054486;70;20138;-76
2023/09/06 03:38:36;;;;;;;4.45;3.10;;;;;;;17.00;59.17;93219.97;2050973;70;20607;-76
2023/09/06 03:41:07;;;;;;;3.53;3.10;;;;;;;16.93;60.48;93212.53;2054791;70;20597;-76
2023/09/06 03:43:37;;;;;;;3.72;3.20;;;;;;;17.04;57.76;93210.88;2051212;70;20150;-76
2023/09/06 03:46:07;;;;;;;4.18;2.70;;;;;;;17.00;58.72;93225.66;2051303;70;20141;-75
2023/09/06 03:48:34;;;;;;;5.32;3.33;;;;;;;16.98;58.79;93221.97;2054887;69;20146;-76
2023/09/06 03:51:00;;;;;;;4.13;3.20;;;;;;;16.94;58.96;93219.69;2051353;70;20254;-76
2023/09/06 03:53:26;;;;;;;5.40;3.13;;;;;;;16.84;58.42;93216.38;2048762;70;20483;-77
2023/09/06 03:55:57;;;;;;;4.45;3.40;;;;;;;16.87;57.82;93211.53;2055030;70;20173;-77
2023/09/06 03:58:27;;;;;;;6.22;3.30;;;;;;;16.93;59.94;93208.94;2048823;70;20179;-76
2023/09/06 04:00:55;;;;;;;6.82;3.28;;;;;;;16.79;59.14;93214.72;2054064;70;20607;-76
2023/09/06 04:03:30;;;;;;;4.20;3.10;;;;;;;16.83;57.29;93217.75;2047858;70;20186;-76
2023/09/06 04:06:02;;;;;;;5.57;3.78;;;;;;;16.61;58.54;93216.69;2047528;70;20166;-77
2023/09/06 04:08:28;;;;;;;4.70;3.10;;;;;;;16.78;57.44;93221.78;2047549;70;20233;-76
2023/09/06 04:10:55;;;;;;;4.78;3.08;;;;;;;16.64;57.95;93215.44;2047556;70;20189;-76
2023/09/06 04:13:21;;;;;;;4.88;3.55;;;;;;;16.78;57.89;93213.25;2047536;70;20618;-76
2023/09/06 04:15:48;;;;;;;4.15;3.25;;;;;;;16.70;58.19;93218.53;2047486;70;20146;-76
2023/09/06 04:18:14;;;;;;;7.70;3.20;;;;;;;16.84;57.19;93218.50;2047338;70;20147;-76
2023/09/06 04:20:46;;;;;;;4.78;3.45;;;;;;;16.67;58.06;93229.06;2047503;70;20190;-76
2023/09/06 04:23:14;;;;;;;6.68;3.45;;;;;;;16.71;59.34;93222.84;2047600;70;20146;-76
2023/09/06 04:25:47;;;;;;;4.22;3.30;;;;;;;16.81;58.40;93223.34;2044811;70;20546;-76
2023/09/06 04:28:25;;;;;;;5.25;3.38;;;;;;;16.81;58.61;93228.28;2051018;70;20193;-76
2023/09/06 04:30:52;;;;;;;7.97;3.40;;;;;;;16.61;59.88;93228.78;2047427;70;20154;-76
2023/09/06 04:33:21;;;;;;;4.72;3.50;;;;;;;16.68;59.46;93227.00;2047287;70;20228;-75
2023/09/06 04:35:55;;;;;;;4.30;3.20;;;;;;;16.76;57.51;93224.53;2047384;70;20146;-75
2023/09/06 04:38:23;;;;;;;3.85;3.28;;;;;;;16.71;58.30;93228.53;2047367;70;20169;-77
2023/09/06 04:40:54;;;;;;;3.70;3.17;;;;;;;16.72;58.66;93236.47;2050584;70;20169;-77
2023/09/06 04:43:23;;;;;;;5.85;3.33;;;;;;;16.63;59.59;93234.59;2047446;70;20153;-77
2023/09/06 04:45:52;;;;;;;5.82;3.20;;;;;;;16.67;57.58;93240.44;2047213;70;20154;-77
2023/09/06 04:48:23;;;;;;;4.43;3.17;;;;;;;16.79;57.06;93237.47;2047380;70;20176;-76
2023/09/06 04:50:56;;;;;;;4.25;3.10;;;;;;;16.75;58.26;93237.28;2050147;70;20143;-76
2023/09/06 04:53:23;;;;;;;6.03;3.60;;;;;;;16.60;58.13;93247.22;2047512;70;20143;-78
2023/09/06 04:55:52;;;;;;;4.18;2.90;;;;;;;16.62;58.02;93241.63;2047512;70;20146;-77
2023/09/06 04:58:23;;;;;;;3.40;2.78;;;;;;;16.69;57.66;93242.66;2047547;70;20619;-77
2023/09/06 05:00:52;;;;;;;6.22;3.22;;;;;;;16.74;57.33;93247.19;2047562;70;20186;-77
2023/09/06 05:03:19;;;;;;;7.78;3.05;;;;;;;16.71;56.55;93237.06;2047485;70;20162;-76
2023/09/06 05:05:51;;;;;;;5.97;3.30;;;;;;;16.61;56.98;93240.16;2050792;70;20142;-77
2023/09/06 05:08:19;;;;;;;6.05;3.08;;;;;;;16.55;57.28;93237.03;2050812;70;20158;-76
2023/09/06 05:10:50;;;;;;;5.20;3.10;;;;;;;16.62;57.33;93238.06;2047453;70;20159;-77
2023/09/06 05:13:18;;;;;;;4.18;3.00;;;;;;;16.61;57.29;93239.44;2047492;70;20165;-77
2023/09/06 05:15:44;;;;;;;5.22;3.20;;;;;;;16.67;56.53;93248.25;2047445;70;20530;-77
2023/09/06 05:18:11;;;;;;;4.40;3.05;;;;;;;16.67;57.76;93240.44;2044619;70;20673;-77
2023/09/06 05:20:39;;;;;;;6.03;3.38;;;;;;;16.62;57.53;93246.59;2044742;70;20156;-78
2023/09/06 05:23:23;;;;;;;4.35;3.00;;;;;;;16.56;58.38;93244.19;2050207;70;20139;-77
2023/09/06 05:25:49;;;;;;;4.25;2.90;;;;;;;16.49;57.67;93248.88;2050678;70;20173;-77
2023/09/06 05:28:23;;;;;;;5.82;3.30;;;;;;;16.58;57.48;93246.38;2047456;70;20153;-77
2023/09/06 05:30:54;;;;;;;5.75;2.90;;;;;;;16.55;57.95;93248.41;2047455;70;20170;-77
2023/09/06 05:33:20;;;;;;;4.70;2.90;;;;;;;16.58;56.36;93240.69;2050642;70;20188;-77
2023/09/06 05:35:46;;;;;;;4.50;3.10;;;;;;;16.60;56.79;93250.06;2050798;70;20574;-77
2023/09/06 05:38:14;;;;;;;6.82;3.35;;;;;;;16.56;56.88;93241.34;2047435;70;20146;-76
2023/09/06 05:40:43;;;;;;;5.82;3.00;;;;;;;16.62;57.15;93247.31;2047452;70;20182;-76
2023/09/06 05:43:14;;;;;;;5.37;3.40;;;;;;;16.65;56.70;93245.31;2047480;70;20158;-77
2023/09/06 05:45:40;;;;;;;3.88;2.83;;;;;;;16.62;57.33;93249.44;2050675;70;20237;-76
2023/09/06 05:48:07;;;;;;;5.20;2.97;;;;;;;16.60;56.31;93244.38;2047233;70;20197;-77
2023/09/06 05:50:34;;;;;;;3.97;3.03;;;;;;;16.54;55.88;93244.09;2044653;70;20178;-77
2023/09/06 05:53:00;;;;;;;7.03;3.05;;;;;;;16.49;56.72;93246.03;2047327;70;20180;-77
2023/09/06 05:55:29;;;;;;;6.65;3.58;;;;;;;16.58;54.96;93249.22;2047644;70;20526;-77
2023/09/06 05:58:08;;;;;;;4.45;3.08;;;;;;;16.63;56.53;93250.88;2047549;70;20147;-77
2023/09/06 06:00:34;;;;;;;6.07;3.05;;;;;;;16.54;55.94;93246.94;2047648;70;20154;-76
2023/09/06 06:03:01;;;;;;;4.18;3.13;;;;;;;16.45;55.24;93245.84;2050750;70;20170;-76
2023/09/06 06:05:28;;;;;;;3.47;2.90;;;;;;;16.48;56.64;93243.81;2047658;70;20154;-77
2023/09/06 06:07:57;;;;;;;6.05;3.15;;;;;;;16.57;57.80;93242.09;2047702;70;20657;-77
2023/09/06 06:10:23;;;;;;;4.05;2.78;;;;;;;16.64;58.06;93250.25;2050971;70;20157;-77
2023/09/06 06:12:49;;;;;;;4.00;3.20;;;;;;;16.56;57.63;93247.03;2050854;70;20151;-76
2023/09/06 06:15:15;;;;;;;4.03;2.92;;;;;;;16.64;55.77;93253.09;2050809;70;20158;-77
2023/09/06 06:17:41;;;;;;;4.35;2.80;;;;;;;16.48;54.93;93255.16;2047326;70;20519;-77
2023/09/06 06:20:09;;;;;;;3.78;2.97;;;;;;;16.51;55.12;93254.63;2050846;70;20539;-78
2023/09/06 06:22:39;;;;;;;5.50;3.15;;;;;;;16.43;56.37;93262.78;2050863;70;20178;-77
2023/09/06 06:25:12;;;;;;;4.88;3.38;;;;;;;16.53;58.29;93262.50;2050850;70;20630;-77
2023/09/06 06:27:39;;;;;;;7.18;3.05;;;;;;;16.55;57.19;93239.16;2054847;70;20237;-79
2023/09/06 06:30:11;;;;;;;7.30;3.30;;;;;;;16.57;55.73;93256.28;2054567;70;20145;-78
2023/09/06 06:32:38;;;;;;;6.00;2.95;;;;;;;16.66;56.08;93256.03;2050932;70;20150;-77
2023/09/06 06:35:08;;;;;;;5.35;3.22;;;;;;;16.60;55.01;93258.59;2054642;70;20153;-77
2023/09/06 06:37:34;;;;;;;6.63;3.10;;;;;;;16.66;55.84;93255.31;2054519;70;20212;-77
2023/09/06 06:40:00;;;;;;;4.78;3.30;;;;;;;16.52;57.39;93247.56;2054554;70;20641;-77
2023/09/06 06:42:27;;;;;;;5.25;3.10;;;;;;;16.66;55.88;93247.50;2054456;70;20319;-76
2023/09/06 06:44:56;;;;;;;4.20;2.80;;;;;;;16.71;57.88;93245.59;2050960;70;20296;-78
2023/09/06 06:47:22;;;;;;;5.03;2.80;;;;;;;16.72;57.29;93252.75;2050897;70;20169;-77
2023/09/06 06:49:50;;;;;;;3.63;2.90;;;;;;;17.07;57.86;93248.69;2054655;70;20595;-78
2023/09/06 06:52:17;;;;;;;4.93;3.40;;;;;;;17.15;58.97;93241.25;2054594;69;20146;-77
2023/09/06 06:54:43;;;;;;;3.65;2.90;;;;;;;17.41;55.72;93246.63;2051085;70;20162;-78
2023/09/06 06:57:10;;;;;;;5.72;3.13;;;;;;;17.64;53.61;93248.34;2054448;70;20225;-78
2023/09/06 06:59:37;;;;;;;7.70;3.10;;;;;;;18.06;53.42;93240.19;2054549;70;20253;-78
2023/09/06 07:02:03;;;;;;;7.35;3.28;;;;;;;18.57;52.67;93245.09;2050783;70;20256;-78
2023/09/06 07:04:30;;;;;;;4.82;2.90;;;;;;;18.74;51.11;93244.41;2054537;70;20182;-79
2023/09/06 07:06:55;;;;;;;4.45;2.90;;;;;;;18.88;51.17;93247.06;2054777;70;20149;-79
2023/09/06 07:09:21;;;;;;;5.57;3.10;;;;;;;19.04;49.38;93241.97;2050948;70;20136;-79
2023/09/06 07:11:49;;;;;;;4.88;2.75;;;;;;;18.94;52.65;93242.31;2054783;70;20153;-79
2023/09/06 07:14:15;;;;;;;5.05;3.20;;;;;;;19.47;51.15;93247.16;2051236;70;20173;-82
2023/09/06 07:16:40;;;;;;;5.55;3.10;;;;;;;19.28;49.27;93250.69;2048658;70;20165;-79
2023/09/06 07:19:09;;;;;;;7.05;2.83;;;;;;;19.54;48.61;93245.97;2055263;70;20208;-80
2023/09/06 07:21:34;;;;;;;4.10;2.78;;;;;;;20.03;47.52;93238.41;2055175;70;20231;-80
2023/09/06 07:24:00;;;;;;;4.60;2.90;;;;;;;20.10;48.64;93242.19;2055266;69;20169;-80
2023/09/06 07:26:26;;;;;;;3.00;2.55;;;;;;;20.72;49.21;93245.72;2055100;70;20144;-80
2023/09/06 07:28:52;;;;;;;6.43;2.63;;;;;;;20.63;48.56;93241.84;2051620;70;20620;-80
2023/09/06 07:31:17;;;;;;;4.47;2.85;;;;;;;20.66;47.53;93237.63;2051654;70;20136;-80
2023/09/06 07:33:45;;;;;;;3.08;2.60;;;;;;;21.44;49.82;93243.63;2055148;70;20149;-80
2023/09/06 07:36:12;;;;;;;4.20;2.55;;;;;;;21.53;48.42;93245.34;2055426;70;20598;-80
2023/09/06 07:38:38;;;;;;;3.58;2.70;;;;;;;21.91;45.38;93244.94;2048970;70;20153;-80
2023/09/06 07:41:08;;;;;;;3.42;2.50;;;;;;;22.30;43.92;93245.97;2055265;70;20162;-80
2023/09/06 07:43:35;;;;;;;4.18;2.35;;;;;;;22.28;43.35;93240.94;2051628;70;20168;-80
2023/09/06 07:46:02;;;;;;;4.25;3.00;;;;;;;22.67;43.37;93247.63;2055366;70;20150;-80
2023/09/06 07:48:30;;;;;;;7.72;2.92;;;;;;;22.78;43.36;93242.88;2055102;69;20185;-79
2023/09/06 07:50:58;;;;;;;7.00;3.10;;;;;;;22.41;44.63;93247.72;2055218;70;20625;-80
2023/09/06 07:53:28;;;;;;;11.90;3.25;;;;;;;22.62;44.56;93239.59;2051734;70;20255;-79
2023/09/06 07:55:55;;;;;;;7.00;3.17;;;;;;;22.26;45.33;93240.13;2051773;70;20150;-79
2023/09/06 07:58:21;;;;;;;5.03;2.92;;;;;;;23.03;44.87;93224.81;2055245;69;20158;-79
2023/09/06 08:00:47;;;;;;;5.97;2.85;;;;;;;23.01;44.90;93235.53;2055215;70;20584;-80
2023/09/06 08:03:14;;;;;;;5.78;2.90;;;;;;;23.18;43.39;93228.00;2051673;70;20585;-80
2023/09/06 08:05:41;;;;;;;4.20;2.40;;;;;;;23.28;43.52;93225.38;2051784;70;20166;-79
2023/09/06 08:08:11;;;;;;;4.25;2.55;;;;;;;23.10;44.08;93214.22;2055324;69;20188;-80
2023/09/06 08:10:38;;;;;;;4.57;2.70;;;;;;;23.78;42.83;93228.59;2051714;70;20138;-80
2023/09/06 08:13:04;;;;;;;4.63;2.47;;;;;;;24.50;41.33;93229.94;2055576;69;20687;-79
2023/09/06 08:15:31;;;;;;;4.70;2.35;;;;;;;23.95;41.52;93223.88;2055412;70;20200;-80
2023/09/06 08:17:56;;;;;;;4.03;2.63;;;;;;;24.12;40.87;93222.03;2055211;69;20146;-80
2023/09/06 08:20:23;;;;;;;3.28;2.50;;;;;;;24.66;39.59;93224.44;2055291;70;20582;-79
2023/09/06 08:22:49;;;;;;;3.47;2.70;;;;;;;25.19;40.08;93219.53;2049028;70;20204;-80
2023/09/06 08:25:15;;;;;;;3.88;2.80;;;;;;;24.32;40.42;93218.78;2051732;70;20181;-77
2023/09/06 08:27:42;;;;;;;3.35;2.50;;;;;;;24.97;41.20;93219.91;2051642;70;20233;-80
2023/09/06 08:30:13;;;;;;;3.20;2.50;;;;;;;25.57;40.17;93222.22;2055317;70;20232;-81
2023/09/06 08:32:43;;;;;;;3.75;2.60;;;;;;;25.85;37.89;93215.38;2055178;70;20231;-80
2023/09/06 08:35:13;;;;;;;2.97;2.60;;;;;;;25.95;38.38;93218.38;2055272;70;20154;-81
2023/09/06 08:37:39;;;;;;;4.20;2.20;;;;;;;26.23;35.32;93220.13;2055294;69;20149;-79
2023/09/06 08:40:07;;;;;;;3.42;2.40;;;;;;;26.39;36.34;93220.28;2055217;70;20138;-77
2023/09/06 08:42:35;;;;;;;3.42;2.60;;;;;;;26.75;36.72;93216.28;2055268;69;20189;-77
2023/09/06 08:45:04;;;;;;;3.22;2.47;;;;;;;27.06;35.09;93208.59;2055258;70;20138;-81
2023/09/06 08:47:31;;;;;;;2.92;2.47;;;;;;;27.51;36.01;93195.16;2055175;70;20174;-81
2023/09/06 08:49:58;;;;;;;4.72;2.47;;;;;;;27.60;35.55;93204.59;2051609;70;20253;-81
2023/09/06 08:52:24;;;;;;;4.20;2.90;;;;;;;27.75;34.61;93200.34;2055218;70;20209;-81
2023/09/06 08:54:50;;;;;;;10.15;2.90;;;;;;;27.90;34.00;93197.53;2055253;70;20177;-81
2023/09/06 08:57:17;;;;;;;3.78;2.38;;;;;;;28.16;35.14;93199.78;2055201;70;20647;-81
2023/09/06 08:59:43;;;;;;;3.50;2.70;;;;;;;27.61;34.37;93197.38;2055224;69;20197;-81
2023/09/06 09:02:12;;;;;;;2.83;2.53;;;;;;;28.63;33.46;93200.59;2055075;69;20201;-81
2023/09/06 09:04:42;;;;;;;2.83;2.58;;;;;;;28.96;33.90;93195.59;2055185;70;20182;-81
2023/09/06 09:07:12;;;;;;;3.17;2.60;;;;;;;29.19;32.08;93198.47;2055021;70;20237;-85
2023/09/06 09:10:14;;;;;;;3.00;2.55;;;;;;;28.48;32.19;93191.19;2055213;70;20150;-83
2023/09/06 09:12:42;;;;;;;3.10;2.43;;;;;;;28.81;31.46;93179.63;2055127;70;21031;-83
2023/09/06 09:15:12;;;;;;;3.60;2.42;;;;;;;28.34;32.01;93186.09;2051705;70;20181;-83
2023/09/06 09:17:39;;;;;;;2.67;2.42;;;;;;;29.38;32.74;93183.22;2055148;70;20146;-82
2023/09/06 09:20:05;;;;;;;3.00;2.70;;;;;;;29.10;30.91;93174.56;2055349;70;20150;-83
2023/09/06 09:22:35;;;;;;;3.70;2.55;;;;;;;30.01;31.81;93167.03;2048821;70;20141;-82
2023/09/06 09:25:15;;;;;;;5.82;2.97;;;;;;;30.50;31.08;93173.31;2051539;70;20177;-83
2023/09/06 09:27:45;;;;;;;3.00;2.58;;;;;;;30.91;30.80;93169.41;2055289;70;20257;-84
2023/09/06 09:30:12;;;;;;;7.18;2.92;;;;;;;30.03;31.79;93161.25;2055164;70;20162;-83
2023/09/06 09:32:39;;;;;;;3.03;2.55;;;;;;;30.31;30.38;93158.19;2055141;70;20632;-83
2023/09/06 09:35:10;;;;;;;2.85;2.47;;;;;;;30.51;30.25;93156.59;2055147;70;20617;-82
2023/09/06 09:37:51;;;;;;;2.75;2.55;;;;;;;31.25;30.71;93160.38;2055040;69;20259;-85
2023/09/06 09:40:18;;;;;;;3.58;2.78;;;;;;;30.80;31.06;93146.25;2055042;70;20595;-88
2023/09/06 09:42:55;;;;;;;4.38;2.67;;;;;;;31.13;30.94;93158.31;2051614;70;20598;-85
2023/09/06 09:45:28;;;;;;;3.00;2.70;;;;;;;30.92;30.63;93153.41;2048933;70;20637;-85
2023/09/06 09:47:57;;;;;;;3.20;2.90;;;;;;;31.81;30.92;93154.72;2055024;70;20141;-85
2023/09/06 09:50:29;;;;;;;2.88;2.60;;;;;;;32.06;28.68;93149.31;2055124;70;20165;-84
2023/09/06 09:52:56;;;;;;;3.03;2.60;;;;;;;31.72;29.18;93147.53;2054406;70;20152;-85
2023/09/06 09:55:31;;;;;;;3.10;2.70;;;;;;;31.73;30.16;93143.88;2055449;70;20146;-87
2023/09/06 09:57:58;;;;;;;3.60;2.70;;;;;;;32.27;29.81;93138.13;2055154;69;20229;-85
2023/09/06 10:00:28;;;;;;;3.92;2.85;;;;;;;33.73;28.43;93146.66;2055087;70;20146;-84
2023/09/06 10:02:58;;;;;;;3.13;2.70;;;;;;;31.57;28.77;93138.97;2051371;70;20162;-89
2023/09/06 10:05:29;;;;;;;6.30;2.70;;;;;;;32.21;29.05;93138.94;2048253;70;20153;-83
2023/09/06 10:07:56;;;;;;;4.00;2.58;;;;;;;34.06;26.69;93137.28;2051540;70;20137;-84
2023/09/06 10:10:24;;;;;;;2.90;2.60;;;;;;;34.64;26.07;93132.34;2051822;70;20538;-84
2023/09/06 10:12:52;;;;;;;3.95;2.42;;;;;;;34.51;26.47;93124.63;2048325;70;20237;-82
2023/09/06 10:15:20;;;;;;;2.78;2.58;;;;;;;34.08;28.28;93125.53;2051767;70;20218;-86
2023/09/06 10:17:49;;;;;;;2.55;2.35;;;;;;;34.96;26.62;93127.22;2051664;70;20150;-87
2023/09/06 10:20:15;;;;;;;3.38;2.72;;;;;;;33.93;25.96;93119.25;2051741;70;20290;-86
2023/09/06 10:22:48;;;;;;;2.63;2.40;;;;;;;34.71;25.56;93120.50;2048170;70;20241;-93
2023/09/06 10:25:15;;;;;;;2.95;2.30;;;;;;;34.91;25.94;93114.13;2051729;70;20178;-86
2023/09/06 10:27:48;;;;;;;2.45;2.25;;;;;;;36.43;24.95;93111.50;2051395;70;20198;-91
2023/09/06 10:30:17;;;;;;;3.17;2.40;;;;;;;37.17;23.56;93112.09;2048170;70;20204;-91
2023/09/06 10:32:46;;;;;;;2.70;2.50;;;;;;;36.89;24.13;93109.31;2051840;70;20150;-85
2023/09/06 10:35:22;;;;;;;2.90;2.35;;;;;;;37.80;24.46;93106.97;2051363;70;20225;-84
2023/09/06 10:38:05;;;;;;;3.28;2.30;;;;;;;37.47;22.04;93098.59;2048075;70;20135;-84
2023/09/06 10:40:51;;;;;;;3.78;2.25;;;;;;;37.57;22.59;93095.31;2051378;70;20166;-84
2023/09/06 10:43:26;;;;;;;4.32;2.33;;;;;;;38.14;22.58;93102.06;2051456;70;20264;-85
2023/09/06 10:45:55;;;;;;;3.70;2.25;;;;;;;36.85;23.29;93094.06;2051464;70;20146;-85
2023/09/06 10:48:21;;;;;;;2.55;2.22;;;;;;;39.15;20.93;93091.47;2051267;70;20177;-85
2023/09/06 10:51:07;;;;;;;2.60;2.40;;;;;;;39.94;20.64;93089.59;2051487;70;20205;-86
2023/09/06 10:53:34;;;;;;;4.22;2.40;;;;;;;41.18;21.20;93091.91;2048158;70;20166;-85
2023/09/06 10:56:02;;;;;;;2.63;2.40;;;;;;;42.12;19.29;93093.75;2051430;70;20135;-86
2023/09/06 10:58:29;;;;;;;3.65;2.00;;;;;;;42.36;19.78;93091.72;2051366;70;20240;-86
2023/09/06 11:01:16;;;;;;;3.17;2.25;;;;;;;42.67;18.85;93080.47;2051249;70;20158;-85
2023/09/06 11:03:46;;;;;;;2.20;2.00;;;;;;;42.14;18.11;93084.75;2051310;70;20153;-84
2023/09/06 11:06:12;;;;;;;2.08;1.90;;;;;;;42.38;18.61;93076.09;2051620;70;20157;-84
2023/09/06 11:08:38;;;;;;;2.00;1.77;;;;;;;44.41;17.92;93083.56;2048069;70;20146;-85
2023/09/06 11:11:09;;;;;;;3.58;2.10;;;;;;;45.40;17.39;93081.66;2048124;70;20145;-85
2023/09/06 11:13:37;;;;;;;2.40;2.20;;;;;;;45.12;16.52;93081.25;2051610;70;20146;-84
2023/09/06 11:16:04;;;;;;;3.30;2.30;;;;;;;47.67;16.91;93080.53;2048018;70;20150;-84
2023/09/06 11:18:33;;;;;;;2.30;2.10;;;;;;;47.18;18.63;93078.19;2051108;70;20139;-84
2023/09/06 11:21:01;;;;;;;2.40;2.20;;;;;;;48.74;16.01;93076.69;2051255;70;20149;-85
2023/09/06 11:23:27;;;;;;;4.00;1.90;;;;;;;47.83;15.30;93076.28;2051360;70;20154;-84
2023/09/06 11:25:58;;;;;;;2.65;2.00;;;;;;;48.91;16.07;93082.06;2051195;70;20628;-84
2023/09/06 11:28:24;;;;;;;3.42;2.30;;;;;;;47.41;16.72;93077.25;2051760;70;20139;-84
2023/09/06 11:30:50;;;;;;;2.20;2.00;;;;;;;50.53;16.19;93079.66;2051800;70;20171;-84
2023/09/06 11:33:17;;;;;;;2.85;2.65;;;;;;;48.36;15.83;93078.16;2051255;70;20145;-84
2023/09/06 11:35:56;;;;;;;3.55;2.60;;;;;;;49.73;15.34;93085.72;2051164;70;20538;-84
2023/09/06 11:38:30;;;;;;;4.88;2.80;;;;;;;47.16;16.04;93069.41;2051194;70;20166;-83
2023/09/06 11:40:57;;;;;;;6.22;2.60;;;;;;;47.93;16.68;93068.81;2051102;70;20150;-85